createdAt,value
2023-03-25T00:00:28.672Z,9.80
2023-03-25T00:02:58.238Z,9.80
2023-03-25T00:05:26.485Z,9.80
2023-03-25T00:07:54.728Z,9.70
2023-03-25T00:10:22.821Z,9.70
2023-03-25T00:12:52.464Z,9.80
2023-03-25T00:15:22.334Z,9.80
2023-03-25T00:17:50.767Z,9.80
2023-03-25T00:20:21.445Z,9.80
2023-03-25T00:22:49.534Z,9.80
2023-03-25T00:25:19.264Z,9.70
2023-03-25T00:27:50.689Z,9.70
2023-03-25T00:30:20.936Z,9.70
2023-03-25T00:32:50.135Z,9.70
2023-03-25T00:35:20.654Z,9.60
2023-03-25T00:37:59.968Z,9.60
2023-03-25T00:40:29.426Z,9.60
2023-03-25T00:42:58.493Z,9.60
2023-03-25T00:45:26.583Z,9.50
2023-03-25T00:47:55.003Z,9.60
2023-03-25T00:50:24.999Z,9.50
2023-03-25T00:52:54.695Z,9.50
2023-03-25T00:55:23.525Z,9.40
2023-03-25T00:57:51.694Z,9.50
2023-03-25T01:00:20.880Z,9.50
2023-03-25T01:02:53.818Z,9.40
2023-03-25T01:05:23.826Z,9.40
2023-03-25T01:07:52.020Z,9.40
2023-03-25T01:10:20.353Z,9.40
2023-03-25T01:12:48.418Z,9.40
2023-03-25T01:15:16.684Z,9.40
2023-03-25T01:17:44.817Z,9.40
2023-03-25T01:20:13.415Z,9.40
2023-03-25T01:22:42.861Z,9.40
2023-03-25T01:25:11.810Z,9.40
2023-03-25T01:27:39.987Z,9.30
2023-03-25T01:30:09.552Z,9.30
2023-03-25T01:32:37.768Z,9.30
2023-03-25T01:35:06.914Z,9.30
2023-03-25T01:37:36.702Z,9.20
2023-03-25T01:40:09.417Z,9.20
2023-03-25T01:42:37.632Z,9.20
2023-03-25T01:45:24.187Z,9.30
2023-03-25T01:48:00.425Z,9.00
2023-03-25T01:50:30.187Z,8.80
2023-03-25T01:53:00.841Z,8.50
2023-03-25T01:55:33.282Z,8.20
2023-03-25T01:58:04.811Z,8.00
2023-03-25T02:00:33.777Z,7.90
2023-03-25T02:03:03.857Z,7.90
2023-03-25T02:05:38.417Z,7.90
2023-03-25T02:08:09.200Z,8.00
2023-03-25T02:10:39.157Z,8.00
2023-03-25T02:13:08.619Z,7.90
2023-03-25T02:15:52.828Z,8.00
2023-03-25T02:18:31.258Z,7.90
2023-03-25T02:21:33.981Z,7.90
2023-03-25T02:24:54.322Z,7.80
2023-03-25T02:27:41.975Z,7.80
2023-03-25T02:30:36.836Z,7.70
2023-03-25T02:33:30.121Z,7.70
2023-03-25T02:36:32.133Z,7.60
2023-03-25T02:39:03.756Z,7.60
2023-03-25T02:41:38.927Z,7.50
2023-03-25T02:44:12.758Z,7.60
2023-03-25T02:46:46.995Z,7.60
2023-03-25T02:49:20.347Z,7.60
2023-03-25T02:51:54.327Z,7.70
2023-03-25T02:54:26.481Z,7.70
2023-03-25T02:56:57.592Z,7.70
2023-03-25T02:59:33.358Z,7.80
2023-03-25T03:02:06.018Z,7.80
2023-03-25T03:04:34.253Z,7.90
2023-03-25T03:07:02.591Z,7.90
2023-03-25T03:09:40.953Z,8.00
2023-03-25T03:12:21.624Z,8.00
2023-03-25T03:15:02.120Z,8.10
2023-03-25T03:17:38.343Z,8.20
2023-03-25T03:20:19.128Z,8.20
2023-03-25T03:22:52.803Z,8.30
2023-03-25T03:25:29.229Z,8.30
2023-03-25T03:28:01.502Z,8.30
2023-03-25T03:30:33.610Z,8.40
2023-03-25T03:33:10.028Z,8.30
2023-03-25T03:35:43.300Z,8.30
2023-03-25T03:38:14.663Z,8.30
2023-03-25T03:40:50.612Z,8.40
2023-03-25T03:43:24.846Z,8.40
2023-03-25T03:45:56.733Z,8.40
2023-03-25T03:48:29.586Z,8.40
2023-03-25T03:51:04.146Z,8.40
2023-03-25T03:53:36.892Z,8.40
2023-03-25T03:56:09.885Z,8.40
2023-03-25T03:58:43.028Z,8.40
2023-03-25T04:01:16.056Z,8.30
2023-03-25T04:03:48.689Z,8.30
2023-03-25T04:06:24.532Z,8.30
2023-03-25T04:08:59.830Z,8.40
2023-03-25T04:11:36.688Z,8.40
2023-03-25T04:14:06.764Z,8.40
2023-03-25T04:16:37.386Z,8.30
2023-03-25T04:19:06.016Z,8.40
2023-03-25T04:21:34.759Z,8.40
2023-03-25T04:24:02.882Z,8.40
2023-03-25T04:26:34.044Z,8.40
2023-03-25T04:29:03.784Z,8.30
2023-03-25T04:31:32.612Z,8.30
2023-03-25T04:34:02.389Z,8.30
2023-03-25T04:36:33.598Z,8.30
2023-03-25T04:39:01.754Z,8.30
2023-03-25T04:41:29.937Z,8.30
2023-03-25T04:43:59.687Z,8.30
2023-03-25T04:46:27.803Z,8.30
2023-03-25T04:48:57.087Z,8.20
2023-03-25T04:51:25.292Z,8.20
2023-03-25T04:53:53.471Z,8.20
2023-03-25T04:56:23.451Z,8.20
2023-03-25T04:58:51.746Z,8.20
2023-03-25T05:01:30.789Z,8.20
2023-03-25T05:04:05.534Z,8.30
2023-03-25T05:06:34.650Z,8.30
2023-03-25T05:09:04.307Z,8.30
2023-03-25T05:11:34.127Z,8.30
2023-03-25T05:14:02.337Z,8.40
2023-03-25T05:16:31.846Z,8.40
2023-03-25T05:19:00.018Z,8.40
2023-03-25T05:21:28.381Z,8.40
2023-03-25T05:23:58.182Z,8.40
2023-03-25T05:26:29.380Z,8.40
2023-03-25T05:29:01.632Z,8.40
2023-03-25T05:31:31.901Z,8.40
2023-03-25T05:34:00.115Z,8.30
2023-03-25T05:36:29.778Z,8.30
2023-03-25T05:38:58.222Z,8.30
2023-03-25T05:41:33.071Z,8.30
2023-03-25T05:44:01.808Z,8.30
2023-03-25T05:46:31.339Z,8.30
2023-03-25T05:49:00.957Z,8.30
2023-03-25T05:51:33.765Z,8.20
2023-03-25T05:54:02.653Z,8.30
2023-03-25T05:56:31.368Z,8.30
2023-03-25T05:58:59.491Z,8.30
2023-03-25T06:01:33.378Z,8.30
2023-03-25T06:04:04.565Z,8.20
2023-03-25T06:06:34.410Z,8.20
2023-03-25T06:09:04.230Z,8.20
2023-03-25T06:11:37.828Z,8.10
2023-03-25T06:14:07.014Z,8.10
2023-03-25T06:16:35.692Z,8.00
2023-03-25T06:19:05.833Z,8.00
2023-03-25T06:21:37.030Z,7.90
2023-03-25T06:24:05.635Z,7.90
2023-03-25T06:26:33.754Z,7.90
2023-03-25T06:29:03.904Z,7.90
2023-03-25T06:31:33.702Z,7.90
2023-03-25T06:34:02.551Z,8.00
2023-03-25T06:36:32.374Z,8.00
2023-03-25T06:39:00.476Z,7.90
2023-03-25T06:41:29.930Z,7.90
2023-03-25T06:44:24.480Z,8.00
2023-03-25T06:47:11.381Z,8.00
2023-03-25T06:49:50.765Z,8.10
2023-03-25T06:52:20.197Z,8.10
2023-03-25T06:54:48.266Z,8.10
2023-03-25T06:57:16.621Z,8.10
2023-03-25T06:59:45.538Z,8.10
2023-03-25T07:02:15.528Z,8.20
2023-03-25T07:04:43.982Z,8.20
2023-03-25T07:07:12.152Z,8.20
2023-03-25T07:09:41.629Z,8.30
2023-03-25T07:12:09.828Z,8.30
2023-03-25T07:14:37.992Z,8.30
2023-03-25T07:17:06.460Z,8.30
2023-03-25T07:19:34.539Z,8.30
2023-03-25T07:22:02.619Z,8.40
2023-03-25T07:24:30.750Z,8.30
2023-03-25T07:27:00.200Z,8.30
2023-03-25T07:29:30.508Z,8.40
2023-03-25T07:31:58.576Z,8.40
2023-03-25T07:34:26.938Z,8.30
2023-03-25T07:36:55.104Z,8.30
2023-03-25T07:39:25.236Z,8.40
2023-03-25T07:41:53.537Z,8.40
2023-03-25T07:44:34.585Z,8.40
2023-03-25T07:47:02.662Z,8.40
2023-03-25T07:49:30.823Z,8.40
2023-03-25T07:51:58.892Z,8.40
2023-03-25T07:54:26.989Z,8.40
2023-03-25T07:56:55.558Z,8.50
2023-03-25T07:59:23.744Z,8.40
2023-03-25T08:01:53.946Z,8.40
2023-03-25T08:04:22.202Z,8.40
2023-03-25T08:06:50.399Z,8.40
2023-03-25T08:09:18.572Z,8.50
2023-03-25T08:11:47.103Z,8.50
2023-03-25T08:14:15.448Z,8.60
2023-03-25T08:16:43.497Z,8.60
2023-03-25T08:19:13.130Z,8.60
2023-03-25T08:21:41.434Z,8.60
2023-03-25T08:24:11.422Z,8.70
2023-03-25T08:26:40.098Z,8.70
2023-03-25T08:29:10.192Z,8.80
2023-03-25T08:31:38.928Z,8.80
2023-03-25T08:34:07.720Z,8.90
2023-03-25T08:36:39.312Z,9.00
2023-03-25T08:39:11.695Z,9.00
2023-03-25T08:41:40.437Z,9.10
2023-03-25T08:44:08.689Z,9.10
2023-03-25T08:46:37.284Z,9.20
2023-03-25T08:49:07.361Z,9.30
2023-03-25T08:51:36.793Z,9.40
2023-03-25T08:54:05.031Z,9.50
2023-03-25T08:56:33.167Z,9.50
2023-03-25T08:59:01.367Z,9.60
2023-03-25T09:01:29.614Z,9.60
2023-03-25T09:03:57.818Z,9.60
2023-03-25T09:06:26.107Z,9.60
2023-03-25T09:08:56.228Z,9.60
2023-03-25T09:11:36.126Z,9.70
2023-03-25T09:14:05.655Z,9.70
2023-03-25T09:16:34.277Z,9.70
2023-03-25T09:19:02.420Z,9.70
2023-03-25T09:21:30.551Z,9.80
2023-03-25T09:24:00.120Z,9.90
2023-03-25T09:26:28.478Z,10.00
2023-03-25T09:28:56.622Z,10.00
2023-03-25T09:31:24.735Z,10.00
2023-03-25T09:33:53.143Z,10.10
2023-03-25T09:36:21.414Z,10.10
2023-03-25T09:38:49.646Z,10.10
2023-03-25T09:41:54.000Z,10.10
2023-03-25T09:44:26.292Z,10.20
2023-03-25T09:46:55.605Z,10.30
2023-03-25T09:49:31.238Z,10.40
2023-03-25T09:52:00.437Z,10.50
2023-03-25T09:54:32.750Z,10.50
2023-03-25T09:57:08.272Z,10.60
2023-03-25T09:59:42.926Z,10.70
2023-03-25T10:02:26.815Z,10.80
2023-03-25T10:05:11.859Z,10.90
2023-03-25T10:08:02.794Z,10.90
2023-03-25T10:10:38.018Z,10.90
2023-03-25T10:13:19.335Z,10.80
2023-03-25T10:15:55.428Z,10.80
2023-03-25T10:18:56.713Z,10.70
2023-03-25T10:21:32.593Z,10.70
2023-03-25T10:24:14.081Z,10.70
2023-03-25T10:26:47.228Z,10.70
2023-03-25T10:29:22.392Z,10.60
2023-03-25T10:31:54.756Z,10.60
2023-03-25T10:34:30.936Z,10.70
2023-03-25T10:37:05.008Z,10.70
2023-03-25T10:39:38.164Z,10.70
2023-03-25T10:42:20.408Z,10.80
2023-03-25T10:44:50.072Z,10.80
2023-03-25T10:47:22.343Z,10.80
2023-03-25T10:49:52.440Z,10.90
2023-03-25T10:52:20.640Z,11.10
2023-03-25T10:54:54.444Z,11.20
2023-03-25T10:57:27.831Z,11.30
2023-03-25T11:00:05.964Z,11.30
2023-03-25T11:02:35.651Z,11.40
2023-03-25T11:05:08.607Z,11.50
2023-03-25T11:07:38.889Z,11.70
2023-03-25T11:10:12.390Z,12.00
2023-03-25T11:12:43.752Z,12.00
2023-03-25T11:15:17.125Z,12.00
2023-03-25T11:17:47.420Z,11.90
2023-03-25T11:20:22.517Z,11.80
2023-03-25T11:22:54.605Z,11.90
2023-03-25T11:25:30.916Z,11.80
2023-03-25T11:28:03.035Z,11.70
2023-03-25T11:30:32.708Z,11.70
2023-03-25T11:33:04.134Z,11.70
2023-03-25T11:35:34.840Z,11.70
2023-03-25T11:38:15.424Z,11.70
2023-03-25T11:40:52.406Z,11.50
2023-03-25T11:43:23.504Z,11.60
2023-03-25T11:45:53.515Z,11.50
2023-03-25T11:48:23.494Z,11.60
2023-03-25T11:50:59.312Z,11.60
2023-03-25T11:53:29.397Z,11.60
2023-03-25T11:56:00.695Z,11.60
2023-03-25T11:58:31.751Z,11.60
2023-03-25T12:01:05.738Z,11.60
2023-03-25T12:03:35.813Z,11.70
2023-03-25T12:06:07.742Z,11.60
2023-03-25T12:08:44.930Z,11.70
2023-03-25T12:11:17.924Z,11.70
2023-03-25T12:14:00.482Z,11.80
2023-03-25T12:16:36.082Z,11.90
2023-03-25T12:19:17.585Z,12.10
2023-03-25T12:22:00.960Z,12.30
2023-03-25T12:24:41.178Z,12.60
2023-03-25T12:27:26.749Z,12.70
2023-03-25T12:30:03.756Z,12.90
2023-03-25T12:32:41.735Z,13.20
2023-03-25T12:35:26.306Z,13.20
2023-03-25T12:38:10.534Z,13.30
2023-03-25T12:40:51.601Z,13.30
2023-03-25T12:43:29.956Z,13.60
2023-03-25T12:46:18.161Z,13.70
2023-03-25T12:49:10.537Z,13.90
2023-03-25T12:51:50.073Z,13.90
2023-03-25T12:54:31.788Z,13.60
2023-03-25T12:57:10.414Z,13.60
2023-03-25T13:00:02.434Z,13.50
2023-03-25T13:02:54.444Z,13.30
2023-03-25T13:05:28.351Z,13.00
2023-03-25T13:08:00.511Z,12.90
2023-03-25T13:10:32.328Z,12.80
2023-03-25T13:13:05.732Z,12.80
2023-03-25T13:15:37.699Z,12.90
2023-03-25T13:18:10.548Z,13.10
2023-03-25T13:20:43.381Z,13.30
2023-03-25T13:23:17.625Z,13.50
2023-03-25T13:25:51.957Z,13.50
2023-03-25T13:28:25.566Z,13.60
2023-03-25T13:30:55.302Z,13.60
2023-03-25T13:33:27.075Z,13.70
2023-03-25T13:36:03.876Z,13.80
2023-03-25T13:38:35.753Z,14.00
2023-03-25T13:41:12.950Z,13.90
2023-03-25T13:43:49.343Z,13.90
2023-03-25T13:46:21.518Z,13.90
2023-03-25T13:48:53.341Z,14.10
2023-03-25T13:51:22.950Z,14.20
2023-03-25T13:53:56.457Z,14.20
2023-03-25T13:57:01.354Z,14.10
2023-03-25T13:59:56.625Z,13.90
2023-03-25T14:02:40.682Z,13.60
2023-03-25T14:05:44.672Z,12.90
2023-03-25T14:08:50.188Z,12.60
2023-03-25T14:11:25.166Z,12.40
2023-03-25T14:13:56.637Z,12.30
2023-03-25T14:16:29.013Z,12.10
2023-03-25T14:19:04.130Z,12.20
2023-03-25T14:21:41.134Z,12.10
2023-03-25T14:24:15.550Z,12.10
2023-03-25T14:26:49.483Z,12.10
2023-03-25T14:29:32.688Z,12.10
2023-03-25T14:32:04.567Z,12.10
2023-03-25T14:34:32.722Z,12.20
2023-03-25T14:37:31.095Z,12.30
2023-03-25T14:40:10.724Z,12.40
2023-03-25T14:42:59.312Z,12.60
2023-03-25T14:46:04.837Z,12.70
2023-03-25T14:48:37.525Z,12.80
2023-03-25T14:51:44.763Z,12.80
2023-03-25T14:54:21.570Z,12.80
2023-03-25T14:56:55.718Z,12.80
2023-03-25T14:59:31.026Z,13.00
2023-03-25T15:02:05.331Z,13.10
2023-03-25T15:04:37.386Z,13.20
2023-03-25T15:07:12.601Z,13.30
2023-03-25T15:09:48.395Z,13.40
2023-03-25T15:12:19.565Z,13.30
2023-03-25T15:14:51.570Z,13.30
2023-03-25T15:17:43.470Z,13.50
2023-03-25T15:20:29.749Z,13.60
2023-03-25T15:23:33.297Z,13.50
2023-03-25T15:26:03.135Z,13.50
2023-03-25T15:29:07.806Z,13.60
2023-03-25T15:32:02.695Z,13.70
2023-03-25T15:34:54.106Z,13.80
2023-03-25T15:37:50.347Z,13.70
2023-03-25T15:40:32.049Z,13.70
2023-03-25T15:43:50.070Z,13.70
2023-03-25T15:46:43.899Z,13.90
2023-03-25T15:49:31.414Z,14.00
2023-03-25T15:52:13.334Z,13.90
2023-03-25T15:54:44.958Z,13.90
2023-03-25T15:57:22.631Z,13.90
2023-03-25T16:00:00.291Z,14.00
2023-03-25T16:02:33.681Z,13.80
2023-03-25T16:05:04.728Z,13.70
2023-03-25T16:07:35.988Z,13.70
2023-03-25T16:10:16.579Z,13.60
2023-03-25T16:12:47.429Z,13.50
2023-03-25T16:15:17.263Z,13.40
2023-03-25T16:17:47.124Z,13.50
2023-03-25T16:20:20.800Z,13.50
2023-03-25T16:22:51.726Z,13.50
2023-03-25T16:25:23.494Z,13.40
2023-03-25T16:27:54.122Z,13.30
2023-03-25T16:30:26.449Z,13.20
2023-03-25T16:32:54.655Z,13.30
2023-03-25T16:35:25.947Z,13.30
2023-03-25T16:37:57.097Z,13.10
2023-03-25T16:40:28.680Z,13.10
2023-03-25T16:43:03.547Z,13.10
2023-03-25T16:45:31.968Z,13.00
2023-03-25T16:48:07.210Z,13.00
2023-03-25T16:50:37.194Z,12.70
2023-03-25T16:53:06.669Z,12.40
2023-03-25T16:55:47.178Z,12.10
2023-03-25T16:58:19.335Z,12.00
2023-03-25T17:00:50.172Z,12.00
2023-03-25T17:03:39.871Z,12.10
2023-03-25T17:06:19.381Z,12.10
2023-03-25T17:08:51.408Z,12.10
2023-03-25T17:11:20.521Z,12.00
2023-03-25T17:13:52.212Z,12.00
2023-03-25T17:16:22.497Z,12.00
2023-03-25T17:18:52.816Z,12.00
2023-03-25T17:21:27.530Z,12.10
2023-03-25T17:23:57.897Z,12.00
2023-03-25T17:26:28.211Z,11.90
2023-03-25T17:29:02.893Z,11.80
2023-03-25T17:31:34.735Z,11.70
2023-03-25T17:34:07.437Z,11.60
2023-03-25T17:36:40.284Z,11.60
2023-03-25T17:39:18.455Z,11.60
2023-03-25T17:41:46.765Z,11.60
2023-03-25T17:44:16.401Z,11.60
2023-03-25T17:46:45.008Z,11.60
2023-03-25T17:49:16.801Z,11.60
2023-03-25T17:51:47.637Z,11.60
2023-03-25T17:54:15.935Z,11.70
2023-03-25T17:56:44.328Z,11.70
2023-03-25T17:59:17.261Z,11.60
2023-03-25T18:01:46.377Z,11.60
2023-03-25T18:04:15.688Z,11.60
2023-03-25T18:06:44.325Z,11.70
2023-03-25T18:09:17.777Z,11.70
2023-03-25T18:11:47.375Z,11.40
2023-03-25T18:14:15.726Z,11.30
2023-03-25T18:16:44.066Z,11.30
2023-03-25T18:19:16.282Z,11.20
2023-03-25T18:21:44.860Z,11.10
2023-03-25T18:24:14.124Z,11.00
2023-03-25T18:26:44.399Z,11.00
2023-03-25T18:29:16.827Z,11.00
2023-03-25T18:31:45.006Z,11.00
2023-03-25T18:34:13.797Z,11.10
2023-03-25T18:36:42.989Z,11.10
2023-03-25T18:39:14.260Z,11.20
2023-03-25T18:41:44.068Z,11.30
2023-03-25T18:44:12.729Z,11.30
2023-03-25T18:46:41.153Z,11.30
2023-03-25T18:49:13.507Z,11.30
2023-03-25T18:51:41.770Z,11.30
2023-03-25T18:54:10.897Z,11.40
2023-03-25T18:56:41.668Z,11.40
2023-03-25T18:59:12.702Z,11.50
2023-03-25T19:01:40.866Z,11.60
2023-03-25T19:04:09.223Z,11.60
2023-03-25T19:06:39.406Z,11.50
2023-03-25T19:09:09.437Z,11.50
2023-03-25T19:11:37.677Z,11.60
2023-03-25T19:14:05.850Z,11.40
2023-03-25T19:16:35.434Z,11.60
2023-03-25T19:19:03.726Z,11.80
2023-03-25T19:21:31.907Z,11.70
2023-03-25T19:24:00.126Z,11.80
2023-03-25T19:26:29.197Z,11.80
2023-03-25T19:28:57.310Z,11.90
2023-03-25T19:31:25.549Z,11.90
2023-03-25T19:33:55.118Z,11.90
2023-03-25T19:36:25.738Z,11.90
2023-03-25T19:38:56.245Z,11.90
2023-03-25T19:41:24.342Z,11.70
2023-03-25T19:43:52.479Z,11.70
2023-03-25T19:46:20.697Z,11.70
2023-03-25T19:48:48.807Z,11.50
2023-03-25T19:51:18.270Z,11.50
2023-03-25T19:53:46.335Z,11.60
2023-03-25T19:56:14.725Z,11.60
2023-03-25T19:58:42.938Z,11.50
2023-03-25T20:01:11.241Z,11.40
2023-03-25T20:03:41.148Z,11.20
2023-03-25T20:06:09.862Z,11.20
2023-03-25T20:08:39.294Z,11.00
2023-03-25T20:11:11.938Z,10.80
2023-03-25T20:13:40.355Z,10.70
2023-03-25T20:16:09.302Z,10.60
2023-03-25T20:18:37.517Z,10.60
2023-03-25T20:21:08.106Z,10.50
2023-03-25T20:23:36.309Z,10.40
2023-03-25T20:26:06.718Z,10.40
2023-03-25T20:28:36.146Z,10.40
2023-03-25T20:31:16.509Z,10.30
2023-03-25T20:33:44.653Z,10.30
2023-03-25T20:36:12.959Z,10.30
2023-03-25T20:38:50.472Z,10.30
2023-03-25T20:41:24.764Z,10.30
2023-03-25T20:43:52.944Z,10.20
2023-03-25T20:46:23.944Z,10.20
2023-03-25T20:48:52.120Z,10.20
2023-03-25T20:51:20.236Z,10.20
2023-03-25T20:53:48.610Z,10.20
2023-03-25T20:56:16.852Z,10.20
2023-03-25T20:58:46.705Z,10.20
2023-03-25T21:01:16.186Z,10.30
2023-03-25T21:03:44.320Z,10.20
2023-03-25T21:08:48.980Z,10.30
2023-03-25T21:11:17.539Z,10.30
2023-03-25T21:13:47.000Z,10.30
2023-03-25T21:16:15.227Z,10.30
2023-03-25T21:18:43.840Z,10.30
2023-03-25T21:21:12.355Z,10.30
2023-03-25T21:23:42.960Z,10.30
2023-03-25T21:26:11.856Z,10.30
2023-03-25T21:28:40.057Z,10.20
2023-03-25T21:31:13.921Z,10.30
2023-03-25T21:33:45.440Z,10.30
2023-03-25T21:36:15.734Z,10.30
2023-03-25T21:38:44.030Z,10.30
2023-03-25T21:41:12.512Z,10.30
2023-03-25T21:43:42.366Z,10.40
2023-03-25T21:46:12.828Z,10.40
2023-03-25T21:48:44.991Z,10.50
2023-03-25T21:51:14.636Z,10.40
2023-03-25T21:53:45.534Z,10.40
2023-03-25T21:56:17.327Z,10.40
2023-03-25T21:58:46.970Z,10.40
2023-03-25T22:01:19.640Z,10.40
2023-03-25T22:03:48.059Z,10.40
2023-03-25T22:06:18.493Z,10.40
2023-03-25T22:08:47.295Z,10.40
2023-03-25T22:11:16.886Z,10.40
2023-03-25T22:13:45.625Z,10.40
2023-03-25T22:16:17.605Z,10.40
2023-03-25T22:18:46.068Z,10.40
2023-03-25T22:21:17.862Z,10.40
2023-03-25T22:23:47.081Z,10.40
2023-03-25T22:26:16.219Z,10.40
2023-03-25T22:28:45.354Z,10.40
2023-03-25T22:31:15.591Z,10.40
2023-03-25T22:33:45.647Z,10.40
2023-03-25T22:36:15.986Z,10.40
2023-03-25T22:38:45.561Z,10.40
2023-03-25T22:41:16.670Z,10.50
2023-03-25T22:43:46.824Z,10.40
2023-03-25T22:46:16.182Z,10.50
2023-03-25T22:48:45.844Z,10.70
2023-03-25T22:51:16.106Z,10.70
2023-03-25T22:53:45.109Z,10.80
2023-03-25T22:56:13.593Z,10.80
2023-03-25T22:58:41.919Z,10.70
2023-03-25T23:01:20.518Z,10.70
2023-03-25T23:03:50.284Z,10.80
2023-03-25T23:06:19.068Z,10.80
2023-03-25T23:08:47.695Z,10.90
2023-03-25T23:11:17.736Z,10.90
2023-03-25T23:13:47.950Z,10.80
2023-03-25T23:16:18.402Z,10.70
2023-03-25T23:18:47.331Z,10.60
2023-03-25T23:21:19.994Z,10.60
2023-03-25T23:23:52.668Z,10.70
2023-03-25T23:26:24.780Z,10.80
2023-03-25T23:28:54.427Z,10.80
2023-03-25T23:31:28.525Z,10.80
2023-03-25T23:33:58.653Z,10.70
2023-03-25T23:36:29.228Z,10.70
2023-03-25T23:38:58.771Z,10.70
2023-03-25T23:41:27.242Z,10.70
2023-03-25T23:43:56.058Z,10.70
2023-03-25T23:46:25.477Z,10.70
2023-03-25T23:48:55.120Z,10.70
2023-03-25T23:51:24.938Z,10.60
2023-03-25T23:53:54.461Z,10.60
2023-03-25T23:56:25.069Z,10.60
2023-03-25T23:58:53.693Z,10.60
